Time;durP1;ratioP1;P1;durP2;ratioP2;P2;SDS_P1;SDS_P2;PMS_P1;PMS_P2;Temp;Humidity;BMP_temperature;BMP_pressure;BME280_temperature;BME280_humidity;BME280_pressure;Samples;Min_cycle;Max_cycle;Signal;HPM_P1;HPM_P2
2020/12/03 00:01:40;;;;;;;58.00;29.67;;;;;;;-3.56;69.21;99763.34;10466380;28;20440;-66
2020/12/03 00:06:52;;;;;;;60.90;29.77;;;;;;;-3.28;69.35;99774.16;10465324;28;20037;-65
2020/12/03 00:11:58;;;;;;;56.53;29.60;;;;;;;-3.43;69.32;99779.03;10447702;28;20132;-65
2020/12/03 00:16:59;;;;;;;58.72;29.13;;;;;;;-3.39;69.45;99762.81;10466502;28;20548;-66
2020/12/03 00:22:01;;;;;;;52.35;28.13;;;;;;;-3.47;69.58;99760.09;10465457;28;20504;-65
2020/12/03 00:27:10;;;;;;;67.30;31.20;;;;;;;-3.43;69.89;99767.03;10465749;28;20068;-66
2020/12/03 00:32:12;;;;;;;56.35;29.10;;;;;;;-3.02;68.45;99763.53;10465044;28;20120;-65
2020/12/03 00:37:13;;;;;;;57.58;28.60;;;;;;;-3.32;69.03;99757.84;10465449;28;20064;-67
2020/12/03 00:42:14;;;;;;;68.72;32.03;;;;;;;-3.50;69.92;99761.72;10464504;28;20116;-64
2020/12/03 00:47:16;;;;;;;65.40;30.38;;;;;;;-3.30;69.75;99751.03;10463777;28;20048;-65
2020/12/03 00:52:17;;;;;;;65.10;32.13;;;;;;;-3.38;69.78;99751.69;10479103;28;20087;-65
2020/12/03 00:57:18;;;;;;;57.83;29.08;;;;;;;-3.26;69.65;99753.66;10464945;28;20037;-66
2020/12/03 01:02:20;;;;;;;63.97;32.03;;;;;;;-3.02;69.04;99738.66;10464457;28;20045;-64
2020/12/03 01:07:22;;;;;;;58.58;30.15;;;;;;;-2.99;68.67;99732.72;10463130;28;20055;-65
2020/12/03 01:12:23;;;;;;;60.05;30.50;;;;;;;-3.23;68.90;99734.03;10464030;28;20506;-65
2020/12/03 01:17:24;;;;;;;63.35;29.13;;;;;;;-3.08;68.78;99720.56;10463494;28;20417;-66
2020/12/03 01:22:26;;;;;;;59.55;30.42;;;;;;;-3.22;69.34;99722.91;10445886;28;20049;-65
2020/12/03 01:27:27;;;;;;;57.28;29.88;;;;;;;-3.19;69.51;99722.06;10462648;28;20127;-64
2020/12/03 01:32:28;;;;;;;59.90;30.88;;;;;;;-3.27;69.71;99724.53;10463395;28;20049;-65
2020/12/03 01:37:29;;;;;;;63.72;29.73;;;;;;;-3.26;69.74;99704.81;10462826;28;20177;-66
2020/12/03 01:42:31;;;;;;;54.70;30.13;;;;;;;-3.56;70.26;99701.69;10462505;28;20144;-65
2020/12/03 01:47:37;;;;;;;62.42;30.38;;;;;;;-3.20;70.06;99710.06;10459762;28;20418;-65
2020/12/03 01:52:39;;;;;;;59.40;30.20;;;;;;;-3.12;69.26;99700.78;10444228;28;20457;-66
2020/12/03 01:58:01;;;;;;;60.20;28.08;;;;;;;-3.03;69.23;99688.09;10463294;28;20052;-65
2020/12/03 02:03:02;;;;;;;59.13;30.05;;;;;;;-3.27;69.41;99683.41;10463144;28;20091;-65
2020/12/03 02:08:03;;;;;;;61.55;30.02;;;;;;;-3.26;69.52;99673.97;10463209;28;20044;-64
2020/12/03 02:13:05;;;;;;;65.45;31.02;;;;;;;-3.39;70.20;99671.19;10463214;28;20037;-63
2020/12/03 02:18:07;;;;;;;66.72;31.98;;;;;;;-3.36;70.25;99663.53;10462725;28;20551;-63
2020/12/03 02:23:14;;;;;;;66.00;31.42;;;;;;;-3.33;70.03;99657.56;10444772;28;20104;-64
2020/12/03 02:28:15;;;;;;;47.88;23.05;;;;;;;-3.30;69.91;99652.50;10463086;28;20051;-66
2020/12/03 02:33:16;;;;;;;59.85;30.17;;;;;;;-3.32;70.12;99654.16;10462683;28;20045;-65
2020/12/03 02:38:17;;;;;;;64.75;30.45;;;;;;;-3.17;69.80;99656.13;10477372;28;20052;-65
2020/12/03 02:43:19;;;;;;;61.80;32.13;;;;;;;-3.52;70.35;99648.66;10462596;28;20099;-66
2020/12/03 02:48:21;;;;;;;67.97;32.08;;;;;;;-3.70;70.81;99636.34;10463968;28;20083;-66
2020/12/03 02:53:22;;;;;;;59.97;30.67;;;;;;;-3.60;70.67;99638.22;10464847;28;20075;-65
2020/12/03 02:58:23;;;;;;;66.45;31.58;;;;;;;-3.43;70.69;99635.13;10469508;28;20072;-65
2020/12/03 03:03:25;;;;;;;64.70;31.92;;;;;;;-3.37;70.38;99623.22;10469235;28;20129;-62
2020/12/03 03:08:26;;;;;;;59.17;31.38;;;;;;;-3.40;70.09;99620.63;10470952;28;20058;-64
2020/12/03 03:13:27;;;;;;;57.72;29.65;;;;;;;-3.36;69.74;99616.41;10468798;28;20092;-64
2020/12/03 03:18:28;;;;;;;62.42;32.10;;;;;;;-3.33;69.67;99619.00;10467606;28;20124;-66
2020/12/03 03:23:30;;;;;;;64.45;32.85;;;;;;;-3.49;70.16;99610.19;10467542;28;20104;-63
2020/12/03 03:28:31;;;;;;;74.85;34.35;;;;;;;-3.48;70.65;99599.06;10468545;28;20044;-63
2020/12/03 03:33:32;;;;;;;63.92;32.70;;;;;;;-3.26;69.53;99590.00;10464917;28;20094;-63
2020/12/03 03:38:33;;;;;;;73.13;36.38;;;;;;;-3.22;70.18;99578.94;10464578;28;20418;-64
2020/12/03 03:43:35;;;;;;;78.93;35.15;;;;;;;-3.25;70.01;99578.88;10465440;28;20041;-64
2020/12/03 03:48:36;;;;;;;73.68;33.97;;;;;;;-3.38;70.36;99561.53;10479151;28;20064;-64
2020/12/03 03:53:38;;;;;;;66.57;33.05;;;;;;;-3.09;69.86;99555.16;10463273;28;20041;-64
2020/12/03 03:58:39;;;;;;;75.60;35.67;;;;;;;-2.88;68.98;99539.19;10464300;28;20045;-64
2020/12/03 04:03:40;;;;;;;80.03;36.85;;;;;;;-2.98;68.97;99526.16;10445040;28;20083;-63
2020/12/03 04:08:42;;;;;;;78.40;36.80;;;;;;;-3.08;69.52;99530.31;10478354;28;20090;-63
2020/12/03 04:13:43;;;;;;;81.57;37.90;;;;;;;-3.15;69.78;99516.47;10464391;28;20076;-64
2020/12/03 04:18:45;;;;;;;77.30;36.85;;;;;;;-2.72;68.91;99508.53;10464169;28;20037;-63
2020/12/03 04:23:46;;;;;;;74.93;35.80;;;;;;;-2.92;69.29;99508.22;10462594;28;20041;-64
2020/12/03 04:28:47;;;;;;;79.05;37.15;;;;;;;-2.71;69.05;99505.97;10462780;28;20049;-65
2020/12/03 04:33:48;;;;;;;73.55;35.85;;;;;;;-2.65;68.67;99503.47;10477997;28;20089;-62
2020/12/03 04:38:50;;;;;;;79.18;36.08;;;;;;;-2.58;68.98;99502.69;10462565;28;20099;-64
2020/12/03 04:43:56;;;;;;;72.82;35.45;;;;;;;-2.83;69.42;99503.25;10478702;28;20083;-62
2020/12/03 04:49:23;;;;;;;73.47;36.60;;;;;;;-2.80;69.86;99516.97;10461279;28;20124;-63
2020/12/03 04:54:45;;;;;;;77.78;37.15;;;;;;;-2.53;68.86;99511.31;10444311;28;20040;-63
2020/12/03 04:59:53;;;;;;;71.35;35.17;;;;;;;-2.41;68.21;99508.06;10461474;28;20052;-63
2020/12/03 05:05:21;;;;;;;73.90;35.63;;;;;;;-2.72;69.41;99514.53;10461550;28;20045;-64
2020/12/03 05:10:32;;;;;;;68.47;34.08;;;;;;;-2.20;68.63;99504.88;10460370;28;20045;-63
2020/12/03 05:15:35;;;;;;;75.15;36.67;;;;;;;-2.43;68.86;99509.75;10442589;28;20049;-63
2020/12/03 05:20:53;;;;;;;70.97;35.80;;;;;;;-2.58;69.44;99510.41;10459424;28;20052;-65
2020/12/03 05:25:56;;;;;;;66.70;33.88;;;;;;;-2.55;69.66;99497.59;10442051;28;20083;-65
2020/12/03 05:31:12;;;;;;;75.47;37.80;;;;;;;-2.31;68.96;99501.28;10459206;28;20048;-64
2020/12/03 05:36:34;;;;;;;69.78;35.03;;;;;;;-2.49;69.56;99503.66;10441939;28;20367;-64
2020/12/03 05:41:41;;;;;;;69.60;34.65;;;;;;;-2.23;68.84;99503.97;10474159;28;20056;-64
2020/12/03 05:46:42;;;;;;;70.32;36.70;;;;;;;-2.24;68.62;99509.97;10441851;28;20551;-64
2020/12/03 05:51:44;;;;;;;79.75;38.55;;;;;;;-2.06;68.93;99499.84;10451327;22;20084;-65
2020/12/03 05:56:50;;;;;;;75.57;37.05;;;;;;;-2.08;68.19;99486.97;10413988;28;20091;-65
2020/12/03 06:02:13;;;;;;;78.50;37.72;;;;;;;-1.93;67.58;99480.25;10413463;28;20064;-65
2020/12/03 06:07:24;;;;;;;79.30;38.08;;;;;;;-1.65;66.40;99492.50;10414599;28;20045;-65
2020/12/03 06:13:02;;;;;;;77.10;35.08;;;;;;;-1.75;67.07;99487.28;10396512;28;20046;-66
2020/12/03 06:18:28;;;;;;;72.03;34.38;;;;;;;-1.74;66.95;99482.13;10396232;28;20061;-65
2020/12/03 06:24:03;;;;;;;71.70;35.08;;;;;;;-1.99;67.67;99480.16;10413102;28;20046;-64
2020/12/03 06:29:33;;;;;;;71.40;35.92;;;;;;;-1.94;68.25;99468.22;10415965;28;20060;-64
2020/12/03 06:34:46;;;;;;;76.20;37.30;;;;;;;-1.82;68.48;99453.72;10421311;28;20037;-65
2020/12/03 06:39:57;;;;;;;81.63;39.70;;;;;;;-1.57;68.49;99438.47;10420404;28;20057;-65
2020/12/03 06:45:41;;;;;;;76.88;36.50;;;;;;;-1.55;68.17;99437.63;10419037;28;20128;-65
2020/12/03 06:50:57;;;;;;;82.10;38.58;;;;;;;-1.68;69.07;99437.50;10420538;28;20121;-65
2020/12/03 06:56:22;;;;;;;80.35;37.25;;;;;;;-1.67;69.08;99450.41;10420433;28;20037;-65
2020/12/03 07:01:45;;;;;;;73.45;35.95;;;;;;;-1.68;69.21;99456.44;10420043;28;20037;-65
2020/12/03 07:07:28;;;;;;;82.95;39.33;;;;;;;-1.61;69.27;99447.88;10421491;28;20056;-65
2020/12/03 07:12:29;;;;;;;78.63;38.42;;;;;;;-1.41;69.54;99460.94;10419739;28;20453;-65
2020/12/03 07:17:42;;;;;;;92.03;40.80;;;;;;;-1.38;69.80;99472.97;10419856;28;20046;-64
2020/12/03 07:22:50;;;;;;;85.10;38.85;;;;;;;-1.43;70.05;99456.59;10419253;28;20045;-65
2020/12/03 07:28:11;;;;;;;83.50;39.63;;;;;;;-1.46;70.39;99444.56;10400887;28;20057;-64
2020/12/03 07:33:38;;;;;;;82.18;38.95;;;;;;;-1.31;70.18;99441.22;10419188;28;20050;-65
2020/12/03 07:38:41;;;;;;;;;;;;;;;-1.49;70.69;99426.50;10392806;28;20060;-64
2020/12/03 07:43:42;;;;;;;83.68;38.95;;;;;;;-1.61;71.40;99422.09;10416811;28;20012;-64
2020/12/03 07:48:45;;;;;;;83.22;39.45;;;;;;;-1.59;71.06;99415.25;10419771;28;20084;-65
2020/12/03 07:54:15;;;;;;;86.95;39.53;;;;;;;-1.09;69.57;99434.47;10418004;28;20120;-65
2020/12/03 07:59:22;;;;;;;90.38;41.33;;;;;;;-1.57;70.98;99420.41;10418175;28;20045;-65
2020/12/03 08:04:36;;;;;;;93.10;43.28;;;;;;;-1.66;71.42;99416.06;10416412;28;20052;-65
2020/12/03 08:09:41;;;;;;;79.72;38.30;;;;;;;-1.24;70.40;99411.16;10417681;28;20045;-65
2020/12/03 08:14:52;;;;;;;84.28;38.35;;;;;;;-0.96;69.35;99422.50;10416694;28;20503;-65
2020/12/03 08:20:03;;;;;;;91.07;41.03;;;;;;;-1.16;70.06;99412.06;10399596;28;20120;-65
2020/12/03 08:25:27;;;;;;;84.50;41.22;;;;;;;-1.22;70.40;99405.19;10417114;28;20128;-66
2020/12/03 08:30:38;;;;;;;90.80;40.20;;;;;;;-1.30;71.61;99407.69;10416880;28;20077;-64
2020/12/03 08:35:40;;;;;;;93.70;42.53;;;;;;;-1.19;71.09;99407.78;10416302;28;20056;-65
2020/12/03 08:40:42;;;;;;;92.97;41.13;;;;;;;-1.00;70.21;99415.59;10416044;28;20069;-64
2020/12/03 08:45:56;;;;;;;87.88;41.08;;;;;;;-0.89;69.76;99393.28;10416085;28;20060;-65
2020/12/03 08:51:04;;;;;;;86.20;40.20;;;;;;;-0.97;69.93;99387.22;10413882;28;20144;-67
2020/12/03 08:56:20;;;;;;;86.50;41.10;;;;;;;-0.78;68.95;99381.31;10414129;28;20160;-65
2020/12/03 09:01:24;;;;;;;62.90;30.20;;;;;;;-0.59;67.97;99370.16;10413781;28;20048;-64
2020/12/03 09:06:28;;;;;;;85.82;40.60;;;;;;;-0.70;68.58;99377.03;10414260;28;20050;-64
2020/12/03 09:11:33;;;;;;;84.82;39.78;;;;;;;-0.87;69.17;99365.78;10414894;28;20529;-64
2020/12/03 09:16:36;;;;;;;91.65;41.85;;;;;;;-0.44;67.75;99360.72;10427953;28;20076;-64
2020/12/03 09:21:38;;;;;;;91.05;39.65;;;;;;;-0.38;67.45;99374.50;10447287;28;20063;-64
2020/12/03 09:26:39;;;;;;;86.70;39.15;;;;;;;-0.51;67.36;99350.38;10438788;28;20143;-64
2020/12/03 09:31:41;;;;;;;83.93;38.88;;;;;;;-0.45;67.61;99357.28;10455727;28;20064;-65
2020/12/03 09:36:42;;;;;;;85.45;39.95;;;;;;;-0.48;67.20;99346.97;10455167;28;20110;-66
2020/12/03 09:41:43;;;;;;;81.80;39.03;;;;;;;-0.44;67.73;99328.03;10451631;28;20041;-64
2020/12/03 09:46:47;;;;;;;80.63;38.08;;;;;;;-0.40;67.51;99319.44;10454654;28;20056;-65
2020/12/03 09:51:48;;;;;;;82.80;38.97;;;;;;;-0.36;67.14;99313.38;10436913;28;20494;-66
2020/12/03 09:56:50;;;;;;;82.68;37.97;;;;;;;-0.18;66.38;99289.28;10454600;28;20045;-65
2020/12/03 10:02:07;;;;;;;83.10;38.47;;;;;;;-0.41;67.36;99281.53;10454310;28;20068;-66
2020/12/03 10:07:29;;;;;;;77.43;37.88;;;;;;;-0.28;67.15;99262.59;10454793;28;20045;-65
2020/12/03 10:12:44;;;;;;;80.38;37.67;;;;;;;-0.08;65.95;99260.03;10454164;28;20045;-66
2020/12/03 10:17:51;;;;;;;76.72;37.45;;;;;;;-0.03;66.48;99249.69;10455067;28;20124;-64
2020/12/03 10:23:04;;;;;;;75.65;37.05;;;;;;;0.29;64.68;99240.97;10454930;28;20445;-65
2020/12/03 10:28:24;;;;;;;76.30;36.15;;;;;;;0.20;65.26;99216.88;10437325;28;20045;-65
2020/12/03 10:33:27;;;;;;;73.55;35.22;;;;;;;0.21;64.22;99216.00;10454324;28;20037;-66
2020/12/03 10:38:39;;;;;;;74.65;37.05;;;;;;;0.37;63.53;99227.16;10454128;28;20083;-65
2020/12/03 10:43:44;;;;;;;74.22;37.67;;;;;;;0.33;64.14;99202.19;10454701;28;20146;-65
2020/12/03 10:48:48;;;;;;;69.93;36.97;;;;;;;0.44;63.55;99197.84;10436749;28;20063;-64
2020/12/03 10:53:50;;;;;;;70.95;35.40;;;;;;;0.47;63.34;99195.22;10453918;28;20151;-65
2020/12/03 11:04:50;;;;;;;71.47;36.63;;;;;;;0.51;63.00;99175.41;10326510;28;20054;-64
2020/12/03 11:09:54;;;;;;;72.45;37.10;;;;;;;0.59;62.51;99172.78;10326421;28;20074;-64
2020/12/03 11:15:00;;;;;;;74.10;37.80;;;;;;;0.65;63.64;99162.38;10329892;28;20109;-65
2020/12/03 11:20:03;;;;;;;74.85;36.47;;;;;;;0.88;62.73;99152.75;10317423;28;20080;-64
2020/12/03 11:25:06;;;;;;;70.55;37.13;;;;;;;0.94;62.00;99139.78;10333813;28;20450;-65
2020/12/03 11:30:18;;;;;;;66.28;34.92;;;;;;;1.03;61.27;99140.59;10333931;28;20178;-66
2020/12/03 11:35:29;;;;;;;76.28;36.33;;;;;;;0.81;61.51;99122.63;10334290;28;20138;-65
2020/12/03 11:40:54;;;;;;;71.65;34.97;;;;;;;0.69;63.22;99113.22;10395864;28;20538;-66
2020/12/03 11:46:43;;;;;;;69.57;36.45;;;;;;;0.84;62.20;99106.22;10460997;28;20127;-65
2020/12/03 11:51:43;;;;;;;65.65;35.40;;;;;;;0.69;62.44;99099.44;10466064;23;20082;-64
2020/12/03 11:56:55;;;;;;;75.95;36.33;;;;;;;0.62;62.58;99092.56;10422581;28;20048;-65
2020/12/03 12:01:59;;;;;;;64.78;34.25;;;;;;;0.52;62.38;99085.75;10423657;28;20132;-65
2020/12/03 12:12:06;;;;;;;65.63;34.42;;;;;;;0.58;62.72;99060.72;10419142;28;20045;-65
2020/12/03 12:17:08;;;;;;;67.63;35.30;;;;;;;0.81;61.29;99052.78;10419272;28;20124;-66
2020/12/03 12:22:12;;;;;;;72.72;36.17;;;;;;;0.81;62.06;99037.25;10419594;28;20052;-67
2020/12/03 12:27:17;;;;;;;58.92;33.42;;;;;;;1.12;61.11;99043.03;10419465;28;20093;-65
2020/12/03 12:32:19;;;;;;;62.75;34.50;;;;;;;1.27;60.43;99042.84;10421445;28;20056;-64
2020/12/03 12:37:20;;;;;;;63.22;31.92;;;;;;;1.22;59.56;99048.97;10421304;28;20052;-65
2020/12/03 12:42:26;;;;;;;66.93;33.80;;;;;;;1.12;58.73;99037.00;10422371;28;20092;-65
2020/12/03 12:47:28;;;;;;;74.65;37.15;;;;;;;0.99;59.38;99044.84;10422054;28;20045;-65
2020/12/03 12:52:29;;;;;;;72.07;34.83;;;;;;;0.80;59.51;99039.84;10422276;28;20061;-63
2020/12/03 12:57:30;;;;;;;78.00;38.60;;;;;;;0.62;61.26;99046.91;10422453;28;20454;-65
2020/12/03 13:02:31;;;;;;;78.40;38.45;;;;;;;0.53;61.20;99064.19;10423524;28;20045;-64
2020/12/03 13:07:33;;;;;;;80.53;35.03;;;;;;;0.73;60.23;99059.75;10422693;28;20041;-64
2020/12/03 13:12:34;;;;;;;77.50;36.75;;;;;;;0.62;60.00;99069.28;10423686;28;20093;-65
2020/12/03 13:17:35;;;;;;;74.88;35.97;;;;;;;0.59;60.04;99071.94;10421262;28;20594;-66
2020/12/03 13:22:36;;;;;;;79.53;36.67;;;;;;;0.57;60.73;99073.66;10421059;28;20042;-63
2020/12/03 13:27:38;;;;;;;75.60;37.13;;;;;;;0.57;60.29;99064.16;10419027;28;20060;-64
2020/12/03 13:32:39;;;;;;;83.40;39.95;;;;;;;0.54;60.97;99060.75;10419493;28;20109;-65
2020/12/03 13:37:40;;;;;;;77.95;37.55;;;;;;;0.47;61.43;99059.94;10418417;28;20049;-64
2020/12/03 13:42:41;;;;;;;75.75;36.53;;;;;;;0.43;61.14;99053.91;10419777;28;20060;-63
2020/12/03 13:47:43;;;;;;;72.10;37.00;;;;;;;0.51;60.32;99030.59;10420595;28;20042;-65
2020/12/03 13:52:44;;;;;;;79.70;38.00;;;;;;;0.43;60.31;99014.28;10420733;28;20096;-65
2020/12/03 13:57:45;;;;;;;80.88;38.35;;;;;;;0.46;60.22;99017.69;10421992;28;20050;-65
2020/12/03 14:02:46;;;;;;;78.88;37.63;;;;;;;0.41;61.13;99016.88;10437090;28;20037;-64
2020/12/03 14:07:48;;;;;;;77.43;35.90;;;;;;;0.39;60.59;99031.53;10418980;28;20060;-65
2020/12/03 14:12:49;;;;;;;76.72;36.45;;;;;;;0.35;60.18;99014.31;10420300;28;20064;-65
2020/12/03 14:17:50;;;;;;;82.47;36.83;;;;;;;0.23;60.96;99023.03;10420975;28;20055;-65
2020/12/03 14:22:51;;;;;;;74.93;35.78;;;;;;;0.33;60.60;99012.63;10421862;28;20458;-64
2020/12/03 14:27:53;;;;;;;78.43;36.20;;;;;;;0.27;60.76;99010.06;10421170;28;20113;-65
2020/12/03 14:32:55;;;;;;;76.28;36.67;;;;;;;0.43;60.35;99004.78;10420984;28;20458;-64
2020/12/03 14:37:57;;;;;;;80.53;37.72;;;;;;;0.34;60.57;99001.41;10416702;28;20049;-64
2020/12/03 14:42:58;;;;;;;74.50;34.97;;;;;;;0.27;59.68;98987.69;10416269;28;20052;-63
2020/12/03 14:48:00;;;;;;;72.93;37.10;;;;;;;0.27;60.64;98977.34;10402100;28;20050;-63
2020/12/03 14:53:01;;;;;;;75.88;36.70;;;;;;;0.31;60.31;98975.59;10427721;28;20228;-64
2020/12/03 14:58:03;;;;;;;74.22;36.15;;;;;;;0.30;60.09;98950.63;10429288;28;20046;-64
2020/12/03 15:03:04;;;;;;;78.93;36.88;;;;;;;0.15;60.69;98969.69;10428174;28;20487;-64
2020/12/03 15:08:07;;;;;;;87.75;38.47;;;;;;;0.10;61.13;98961.13;10430321;28;20053;-64
2020/12/03 15:13:08;;;;;;;78.45;37.55;;;;;;;0.22;60.60;98954.13;10430825;28;20042;-63
2020/12/03 15:18:10;;;;;;;74.10;35.20;;;;;;;0.18;60.11;98936.09;10429701;28;20045;-65
2020/12/03 15:23:12;;;;;;;69.32;35.03;;;;;;;0.09;59.64;98947.34;10428861;28;20136;-64
2020/12/03 15:28:14;;;;;;;69.78;34.30;;;;;;;0.11;59.63;98924.06;10429301;28;20491;-64
2020/12/03 15:33:16;;;;;;;66.97;32.75;;;;;;;0.13;58.76;98920.56;10429827;28;20037;-63
2020/12/03 15:38:18;;;;;;;74.30;33.60;;;;;;;0.08;59.01;98914.59;10430005;28;20049;-64
2020/12/03 15:43:19;;;;;;;58.72;29.77;;;;;;;0.04;58.32;98912.03;10426017;28;20045;-63
2020/12/03 15:48:34;;;;;;;67.43;31.27;;;;;;;0.03;58.41;98913.78;10427248;28;20048;-64
2020/12/03 15:53:36;;;;;;;64.90;31.85;;;;;;;-0.03;58.96;98914.69;10427445;28;20495;-64
2020/12/03 15:58:37;;;;;;;56.25;28.60;;;;;;;-0.03;58.26;98914.69;10426057;28;20104;-64
2020/12/03 16:03:38;;;;;;;64.40;28.88;;;;;;;-0.16;59.25;98918.22;10426836;28;20064;-64
2020/12/03 16:08:39;;;;;;;60.50;29.90;;;;;;;-0.15;58.71;98909.59;10426354;28;20042;-63
2020/12/03 16:13:41;;;;;;;59.47;29.33;;;;;;;-0.29;58.99;98907.09;10426179;28;20046;-62
2020/12/03 16:18:42;;;;;;;60.05;29.13;;;;;;;-0.22;58.80;98887.28;10425170;28;20407;-64
2020/12/03 16:23:43;;;;;;;60.53;30.58;;;;;;;-0.26;58.83;98877.84;10423578;28;20046;-65
2020/12/03 16:28:45;;;;;;;60.70;29.80;;;;;;;-0.31;59.19;98869.25;10424012;28;20045;-64
2020/12/03 16:33:53;;;;;;;58.00;30.50;;;;;;;-0.41;59.35;98865.00;10424090;28;20051;-64
2020/12/03 16:38:57;;;;;;;57.80;31.75;;;;;;;-0.84;60.77;98870.41;10422061;28;20105;-65
2020/12/03 16:43:59;;;;;;;54.10;29.60;;;;;;;-0.70;59.80;98847.13;10422694;28;20088;-65
2020/12/03 16:49:00;;;;;;;58.45;31.05;;;;;;;-0.60;59.09;98841.03;10422655;28;20049;-65
2020/12/03 16:54:04;;;;;;;54.92;29.80;;;;;;;-0.66;58.93;98829.03;10421336;28;20048;-62
2020/12/03 16:59:05;;;;;;;49.42;28.65;;;;;;;-0.86;59.95;98826.56;10422052;28;20049;-64
2020/12/03 17:04:06;;;;;;;65.53;31.10;;;;;;;-0.73;59.57;98827.34;10420598;28;20407;-63
2020/12/03 17:09:08;;;;;;;62.33;28.77;;;;;;;-0.71;58.89;98835.94;10421571;28;20045;-64
2020/12/03 17:14:09;;;;;;;53.90;28.33;;;;;;;-0.75;58.93;98818.78;10421000;28;20044;-64
2020/12/03 17:19:11;;;;;;;57.38;29.48;;;;;;;-0.83;59.04;98808.50;10421494;28;20084;-66
2020/12/03 17:24:12;;;;;;;55.83;29.88;;;;;;;-0.87;59.66;98814.53;10421619;28;20042;-65
2020/12/03 17:29:13;;;;;;;65.07;31.45;;;;;;;-1.19;60.54;98806.09;10419454;28;20168;-63
2020/12/03 17:34:15;;;;;;;68.70;34.10;;;;;;;-1.25;61.54;98804.38;10420302;28;20045;-63
2020/12/03 17:39:17;;;;;;;66.13;34.58;;;;;;;-1.14;61.20;98796.63;10417888;28;20049;-63
2020/12/03 17:44:18;;;;;;;69.72;34.05;;;;;;;-1.10;61.48;98783.72;10421578;28;20048;-65
2020/12/03 17:49:20;;;;;;;78.53;37.20;;;;;;;-1.47;62.32;98797.59;10421695;28;20410;-65
2020/12/03 17:54:22;;;;;;;66.00;33.42;;;;;;;-1.37;62.06;98799.31;10422343;28;20083;-66
2020/12/03 17:59:23;;;;;;;72.40;36.45;;;;;;;-1.50;62.83;98790.75;10421984;28;20076;-65
2020/12/03 18:04:25;;;;;;;67.28;34.40;;;;;;;-1.59;62.92;98783.91;10421893;28;20152;-66
2020/12/03 18:09:26;;;;;;;69.07;32.38;;;;;;;-1.43;61.98;98784.69;10424083;28;20499;-66
2020/12/03 18:14:28;;;;;;;51.45;29.17;;;;;;;-1.45;62.08;98788.16;10422317;28;20112;-66
2020/12/03 18:19:29;;;;;;;59.95;29.75;;;;;;;-1.45;61.73;98785.59;10422287;28;20104;-65
2020/12/03 18:24:32;;;;;;;57.22;29.42;;;;;;;-1.21;61.09;98793.19;10424991;28;20079;-66
2020/12/03 18:29:33;;;;;;;49.13;26.60;;;;;;;-1.20;61.20;98797.47;10430085;28;20049;-66
2020/12/03 18:34:34;;;;;;;47.63;26.45;;;;;;;-1.30;61.39;98795.81;10430660;28;20133;-65
2020/12/03 18:39:35;;;;;;;34.47;22.85;;;;;;;-1.30;61.07;98786.34;10429992;28;20603;-66
2020/12/03 18:44:36;;;;;;;38.85;24.00;;;;;;;-1.29;61.08;98777.75;10430311;28;20034;-65
2020/12/03 18:49:37;;;;;;;37.38;23.20;;;;;;;-1.66;62.33;98787.34;10430359;28;20120;-65
2020/12/03 18:54:39;;;;;;;35.08;22.90;;;;;;;-1.62;61.73;98773.59;10428923;28;20076;-66
2020/12/03 18:59:40;;;;;;;35.85;21.40;;;;;;;-1.58;62.02;98777.03;10427512;28;20079;-64
2020/12/03 19:04:41;;;;;;;29.10;21.75;;;;;;;-1.88;62.84;98786.53;10429823;28;20048;-64
2020/12/03 19:09:46;;;;;;;27.02;20.98;;;;;;;-1.93;63.06;98779.69;10429719;28;20045;-65
2020/12/03 19:14:47;;;;;;;31.38;20.73;;;;;;;-1.94;63.47;98777.97;10430489;28;20095;-66
2020/12/03 19:19:50;;;;;;;32.70;21.60;;;;;;;-1.92;63.75;98771.94;10429876;28;20050;-65
2020/12/03 19:24:51;;;;;;;33.47;22.05;;;;;;;-1.74;63.64;98755.59;10430023;28;20080;-66
2020/12/03 19:29:53;;;;;;;36.70;21.67;;;;;;;-1.37;62.90;98748.59;10428752;28;20060;-63
2020/12/03 19:34:54;;;;;;;28.92;19.35;;;;;;;-1.43;62.28;98742.59;10429397;28;20442;-66
2020/12/03 19:39:55;;;;;;;28.60;19.55;;;;;;;-1.67;63.10;98739.25;10428732;28;20080;-65
2020/12/03 19:44:56;;;;;;;29.02;20.25;;;;;;;-1.30;62.64;98742.53;10427956;28;20037;-64
2020/12/03 19:49:58;;;;;;;32.15;19.60;;;;;;;-1.10;61.79;98731.28;10427737;28;20251;-66
2020/12/03 19:54:59;;;;;;;20.08;16.67;;;;;;;-1.22;61.60;98731.34;10428166;28;20064;-66
2020/12/03 20:00:00;;;;;;;24.55;18.13;;;;;;;-1.25;61.87;98721.88;10428278;28;20560;-65
2020/12/03 20:05:02;;;;;;;27.67;18.88;;;;;;;-1.42;62.46;98711.66;10430463;28;20041;-66
2020/12/03 20:10:03;;;;;;;22.67;16.33;;;;;;;-1.05;61.33;98709.75;10429606;28;20136;-65
2020/12/03 20:15:05;;;;;;;24.35;19.42;;;;;;;-1.10;60.98;98697.75;10427912;28;20502;-65
2020/12/03 20:20:06;;;;;;;20.90;17.13;;;;;;;-1.17;61.52;98691.75;10426003;28;20045;-66
2020/12/03 20:25:11;;;;;;;22.80;17.75;;;;;;;-1.38;61.88;98684.16;10425544;28;20435;-66
2020/12/03 20:30:12;;;;;;;23.52;18.40;;;;;;;-1.66;62.84;98679.13;10426162;28;20052;-65
2020/12/03 20:35:13;;;;;;;24.55;19.67;;;;;;;-1.22;61.69;98669.47;10426276;28;20041;-65
2020/12/03 20:40:15;;;;;;;24.40;19.67;;;;;;;-1.39;61.94;98656.66;10427880;28;20046;-64
2020/12/03 20:45:16;;;;;;;27.92;20.27;;;;;;;-1.43;62.13;98642.94;10422597;28;20125;-68
2020/12/03 20:50:17;;;;;;;28.52;19.38;;;;;;;-1.77;62.81;98634.56;10422667;28;20124;-68
2020/12/03 20:55:18;;;;;;;29.55;19.80;;;;;;;-2.06;63.54;98624.38;10420863;28;20472;-69
2020/12/03 21:00:19;;;;;;;28.88;20.17;;;;;;;-1.83;63.39;98614.81;10422127;28;20055;-68
2020/12/03 21:05:21;;;;;;;30.23;20.30;;;;;;;-2.01;63.51;98611.47;10422162;28;20045;-68
2020/12/03 21:10:23;;;;;;;31.17;21.58;;;;;;;-2.06;64.74;98606.34;10419688;28;20058;-68
2020/12/03 21:15:24;;;;;;;28.67;20.25;;;;;;;-2.15;64.96;98599.50;10421738;28;20060;-69
2020/12/03 21:20:25;;;;;;;29.60;19.90;;;;;;;-2.35;65.04;98588.41;10421563;28;20049;-68
2020/12/03 21:25:31;;;;;;;36.58;22.75;;;;;;;-2.24;64.98;98578.09;10421529;28;20041;-69
2020/12/03 21:30:37;;;;;;;36.47;22.25;;;;;;;-2.37;65.70;98569.56;10421826;28;20133;-69
2020/12/03 21:35:41;;;;;;;38.67;23.58;;;;;;;-2.20;65.28;98552.34;10422796;28;20535;-68
2020/12/03 21:40:45;;;;;;;41.55;24.73;;;;;;;-2.27;65.43;98553.22;10420491;28;20423;-69
2020/12/03 21:45:46;;;;;;;40.05;23.40;;;;;;;-2.21;65.52;98552.31;10420551;28;20037;-69
2020/12/03 21:50:47;;;;;;;36.40;22.10;;;;;;;-2.24;65.02;98555.78;10419296;28;20037;-67
2020/12/03 21:55:49;;;;;;;41.90;23.73;;;;;;;-2.26;65.97;98551.50;10421413;28;20038;-68
2020/12/03 22:00:50;;;;;;;40.67;24.50;;;;;;;-2.37;65.49;98544.69;10418868;28;20081;-68
2020/12/03 22:05:51;;;;;;;33.28;22.13;;;;;;;-2.51;65.86;98533.59;10419679;28;20046;-68
2020/12/03 22:10:52;;;;;;;39.20;23.45;;;;;;;-2.56;65.67;98523.31;10419691;28;20087;-68
2020/12/03 22:15:53;;;;;;;40.13;23.83;;;;;;;-2.60;66.63;98511.31;10420248;28;20077;-68
2020/12/03 22:20:56;;;;;;;42.15;22.73;;;;;;;-2.38;66.09;98498.38;10421742;28;20088;-67
2020/12/03 22:25:57;;;;;;;45.33;24.60;;;;;;;-2.17;65.85;98485.41;10421179;28;20033;-68
2020/12/03 22:30:59;;;;;;;49.38;25.38;;;;;;;-1.95;65.54;98470.66;10419756;28;20056;-68
2020/12/03 22:36:00;;;;;;;38.72;24.08;;;;;;;-1.96;65.82;98437.19;10419334;28;20119;-68
2020/12/03 22:41:01;;;;;;;44.75;24.45;;;;;;;-1.79;65.43;98425.91;10419057;28;20045;-69
2020/12/03 22:46:02;;;;;;;37.45;23.77;;;;;;;-1.67;65.13;98421.53;10418516;28;20075;-67
2020/12/03 22:51:04;;;;;;;43.53;25.25;;;;;;;-1.56;64.92;98407.66;10418476;28;20103;-68
2020/12/03 22:56:05;;;;;;;48.03;25.70;;;;;;;-1.52;65.08;98401.63;10419090;28;20045;-69
2020/12/03 23:01:06;;;;;;;46.97;25.10;;;;;;;-1.39;64.60;98386.03;10418615;28;20124;-68
2020/12/03 23:06:18;;;;;;;43.00;25.50;;;;;;;-1.60;65.35;98356.19;10417653;28;20091;-69
2020/12/03 23:11:30;;;;;;;47.53;26.35;;;;;;;-1.49;64.82;98338.06;10423760;28;20509;-68
2020/12/03 23:16:32;;;;;;;48.53;26.48;;;;;;;-1.58;65.32;98337.28;10426121;28;20236;-69
2020/12/03 23:21:37;;;;;;;47.63;25.80;;;;;;;-1.62;65.43;98321.84;10425238;28;20049;-68